sensor_id;sensor_type;location;lat;lon;timestamp;temperature;humidity
61392;DHT22;47261;52.892;5.738;2023-04-15T00:01:09;8.90;92.90
61392;DHT22;47261;52.892;5.738;2023-04-15T00:03:36;8.90;92.90
61392;DHT22;47261;52.892;5.738;2023-04-15T00:06:02;8.80;92.90
61392;DHT22;47261;52.892;5.738;2023-04-15T00:08:28;8.70;92.90
61392;DHT22;47261;52.892;5.738;2023-04-15T00:10:54;8.70;93.00
61392;DHT22;47261;52.892;5.738;2023-04-15T00:13:20;8.70;93.00
61392;DHT22;47261;52.892;5.738;2023-04-15T00:15:45;8.60;93.10
61392;DHT22;47261;52.892;5.738;2023-04-15T00:18:11;8.60;93.10
61392;DHT22;47261;52.892;5.738;2023-04-15T00:20:37;8.60;93.20
61392;DHT22;47261;52.892;5.738;2023-04-15T00:23:03;8.50;93.30
61392;DHT22;47261;52.892;5.738;2023-04-15T00:25:28;8.50;93.30
61392;DHT22;47261;52.892;5.738;2023-04-15T00:27:54;8.50;93.40
61392;DHT22;47261;52.892;5.738;2023-04-15T00:30:20;8.50;93.50
61392;DHT22;47261;52.892;5.738;2023-04-15T00:32:45;8.50;93.50
61392;DHT22;47261;52.892;5.738;2023-04-15T00:35:11;8.40;93.50
61392;DHT22;47261;52.892;5.738;2023-04-15T00:37:37;8.40;93.80
61392;DHT22;47261;52.892;5.738;2023-04-15T00:40:02;8.40;93.60
61392;DHT22;47261;52.892;5.738;2023-04-15T00:42:30;8.40;93.60
61392;DHT22;47261;52.892;5.738;2023-04-15T00:44:56;8.30;93.60
61392;DHT22;47261;52.892;5.738;2023-04-15T00:47:22;8.30;93.60
61392;DHT22;47261;52.892;5.738;2023-04-15T00:49:47;8.30;93.70
61392;DHT22;47261;52.892;5.738;2023-04-15T00:52:13;8.20;93.80
61392;DHT22;47261;52.892;5.738;2023-04-15T00:54:39;8.20;93.90
61392;DHT22;47261;52.892;5.738;2023-04-15T00:57:05;8.20;94.00
61392;DHT22;47261;52.892;5.738;2023-04-15T00:59:32;8.20;94.10
61392;DHT22;47261;52.892;5.738;2023-04-15T01:01:59;8.20;94.20
61392;DHT22;47261;52.892;5.738;2023-04-15T01:04:24;8.20;94.30
61392;DHT22;47261;52.892;5.738;2023-04-15T01:06:50;8.20;94.50
61392;DHT22;47261;52.892;5.738;2023-04-15T01:09:16;8.20;94.60
61392;DHT22;47261;52.892;5.738;2023-04-15T01:11:42;8.20;94.80
61392;DHT22;47261;52.892;5.738;2023-04-15T01:14:09;8.20;94.90
61392;DHT22;47261;52.892;5.738;2023-04-15T01:16:36;8.30;94.90
61392;DHT22;47261;52.892;5.738;2023-04-15T01:19:08;8.30;94.90
61392;DHT22;47261;52.892;5.738;2023-04-15T01:21:38;8.30;94.90
61392;DHT22;47261;52.892;5.738;2023-04-15T01:24:09;8.30;94.90
61392;DHT22;47261;52.892;5.738;2023-04-15T01:26:39;8.30;95.00
61392;DHT22;47261;52.892;5.738;2023-04-15T01:29:05;8.30;95.00
61392;DHT22;47261;52.892;5.738;2023-04-15T01:31:31;8.20;95.20
61392;DHT22;47261;52.892;5.738;2023-04-15T01:33:57;8.20;95.00
61392;DHT22;47261;52.892;5.738;2023-04-15T01:36:23;8.20;95.00
61392;DHT22;47261;52.892;5.738;2023-04-15T01:38:49;8.20;95.00
61392;DHT22;47261;52.892;5.738;2023-04-15T01:41:15;8.20;94.90
61392;DHT22;47261;52.892;5.738;2023-04-15T01:43:40;8.10;94.90
61392;DHT22;47261;52.892;5.738;2023-04-15T01:46:06;8.10;94.80
61392;DHT22;47261;52.892;5.738;2023-04-15T01:48:32;8.10;94.80
61392;DHT22;47261;52.892;5.738;2023-04-15T01:50:58;8.00;94.70
61392;DHT22;47261;52.892;5.738;2023-04-15T01:53:24;8.00;94.70
61392;DHT22;47261;52.892;5.738;2023-04-15T01:55:51;7.90;94.70
61392;DHT22;47261;52.892;5.738;2023-04-15T01:58:17;7.80;94.60
61392;DHT22;47261;52.892;5.738;2023-04-15T02:00:43;7.70;94.70
61392;DHT22;47261;52.892;5.738;2023-04-15T02:03:09;7.70;94.80
61392;DHT22;47261;52.892;5.738;2023-04-15T02:05:35;7.60;94.90
61392;DHT22;47261;52.892;5.738;2023-04-15T02:08:01;7.60;95.00
61392;DHT22;47261;52.892;5.738;2023-04-15T02:10:28;7.50;95.10
61392;DHT22;47261;52.892;5.738;2023-04-15T02:12:53;7.50;95.20
61392;DHT22;47261;52.892;5.738;2023-04-15T02:15:19;7.50;95.20
61392;DHT22;47261;52.892;5.738;2023-04-15T02:17:45;7.50;95.30
61392;DHT22;47261;52.892;5.738;2023-04-15T02:20:15;7.40;95.30
61392;DHT22;47261;52.892;5.738;2023-04-15T02:22:42;7.40;95.30
61392;DHT22;47261;52.892;5.738;2023-04-15T02:25:08;7.40;95.40
61392;DHT22;47261;52.892;5.738;2023-04-15T02:27:35;7.30;95.40
61392;DHT22;47261;52.892;5.738;2023-04-15T02:30:01;7.30;95.50
61392;DHT22;47261;52.892;5.738;2023-04-15T02:32:26;7.30;95.60
61392;DHT22;47261;52.892;5.738;2023-04-15T02:34:53;7.20;95.60
61392;DHT22;47261;52.892;5.738;2023-04-15T02:37:19;7.20;95.70
61392;DHT22;47261;52.892;5.738;2023-04-15T02:39:45;7.10;95.70
61392;DHT22;47261;52.892;5.738;2023-04-15T02:42:11;7.10;95.70
61392;DHT22;47261;52.892;5.738;2023-04-15T02:44:37;7.00;95.80
61392;DHT22;47261;52.892;5.738;2023-04-15T02:47:03;7.00;95.90
61392;DHT22;47261;52.892;5.738;2023-04-15T02:49:31;7.00;96.00
61392;DHT22;47261;52.892;5.738;2023-04-15T02:51:57;6.90;96.00
61392;DHT22;47261;52.892;5.738;2023-04-15T02:54:25;6.90;96.10
61392;DHT22;47261;52.892;5.738;2023-04-15T02:56:53;6.90;96.20
61392;DHT22;47261;52.892;5.738;2023-04-15T02:59:21;6.90;96.30
61392;DHT22;47261;52.892;5.738;2023-04-15T03:01:47;6.90;96.30
61392;DHT22;47261;52.892;5.738;2023-04-15T03:04:12;6.90;96.40
61392;DHT22;47261;52.892;5.738;2023-04-15T03:06:38;6.90;96.40
61392;DHT22;47261;52.892;5.738;2023-04-15T03:09:04;6.90;96.40
61392;DHT22;47261;52.892;5.738;2023-04-15T03:11:30;6.90;96.50
61392;DHT22;47261;52.892;5.738;2023-04-15T03:13:56;6.80;96.50
61392;DHT22;47261;52.892;5.738;2023-04-15T03:16:23;6.80;96.50
61392;DHT22;47261;52.892;5.738;2023-04-15T03:18:48;6.80;96.60
61392;DHT22;47261;52.892;5.738;2023-04-15T03:21:14;6.80;96.60
61392;DHT22;47261;52.892;5.738;2023-04-15T03:23:39;6.80;96.70
61392;DHT22;47261;52.892;5.738;2023-04-15T03:26:05;6.80;96.70
61392;DHT22;47261;52.892;5.738;2023-04-15T03:28:31;6.80;96.70
61392;DHT22;47261;52.892;5.738;2023-04-15T03:30:57;6.80;96.80
61392;DHT22;47261;52.892;5.738;2023-04-15T03:33:23;6.80;96.80
61392;DHT22;47261;52.892;5.738;2023-04-15T03:35:50;6.70;96.80
61392;DHT22;47261;52.892;5.738;2023-04-15T03:38:16;6.70;96.90
61392;DHT22;47261;52.892;5.738;2023-04-15T03:40:42;6.70;96.90
61392;DHT22;47261;52.892;5.738;2023-04-15T03:43:07;6.70;96.90
61392;DHT22;47261;52.892;5.738;2023-04-15T03:45:33;6.70;97.00
61392;DHT22;47261;52.892;5.738;2023-04-15T03:47:59;6.70;97.00
61392;DHT22;47261;52.892;5.738;2023-04-15T03:50:24;6.70;97.00
61392;DHT22;47261;52.892;5.738;2023-04-15T03:52:50;6.70;97.00
61392;DHT22;47261;52.892;5.738;2023-04-15T03:55:16;6.60;97.00
61392;DHT22;47261;52.892;5.738;2023-04-15T03:57:41;6.60;96.90
61392;DHT22;47261;52.892;5.738;2023-04-15T04:00:08;6.50;96.90
61392;DHT22;47261;52.892;5.738;2023-04-15T04:02:37;6.50;96.90
61392;DHT22;47261;52.892;5.738;2023-04-15T04:05:03;6.40;97.00
61392;DHT22;47261;52.892;5.738;2023-04-15T04:07:29;6.40;97.10
61392;DHT22;47261;52.892;5.738;2023-04-15T04:09:56;6.40;97.20
61392;DHT22;47261;52.892;5.738;2023-04-15T04:12:22;6.40;97.20
61392;DHT22;47261;52.892;5.738;2023-04-15T04:14:47;6.30;97.30
61392;DHT22;47261;52.892;5.738;2023-04-15T04:17:13;6.30;97.40
61392;DHT22;47261;52.892;5.738;2023-04-15T04:19:39;6.30;97.50
61392;DHT22;47261;52.892;5.738;2023-04-15T04:22:04;6.40;97.60
61392;DHT22;47261;52.892;5.738;2023-04-15T04:24:30;6.40;97.70
61392;DHT22;47261;52.892;5.738;2023-04-15T04:26:56;6.40;97.70
61392;DHT22;47261;52.892;5.738;2023-04-15T04:29:22;6.40;97.70
61392;DHT22;47261;52.892;5.738;2023-04-15T04:31:48;6.40;97.70
61392;DHT22;47261;52.892;5.738;2023-04-15T04:34:14;6.40;97.60
61392;DHT22;47261;52.892;5.738;2023-04-15T04:36:40;6.30;97.50
61392;DHT22;47261;52.892;5.738;2023-04-15T04:39:06;6.30;97.50
61392;DHT22;47261;52.892;5.738;2023-04-15T04:41:32;6.30;97.50
61392;DHT22;47261;52.892;5.738;2023-04-15T04:43:58;6.20;97.50
61392;DHT22;47261;52.892;5.738;2023-04-15T04:46:23;6.10;97.50
61392;DHT22;47261;52.892;5.738;2023-04-15T04:48:49;6.10;97.60
61392;DHT22;47261;52.892;5.738;2023-04-15T04:51:15;6.10;97.60
61392;DHT22;47261;52.892;5.738;2023-04-15T04:53:41;6.10;97.70
61392;DHT22;47261;52.892;5.738;2023-04-15T04:56:07;6.10;97.70
61392;DHT22;47261;52.892;5.738;2023-04-15T04:58:33;6.10;97.80
61392;DHT22;47261;52.892;5.738;2023-04-15T05:00:58;6.00;97.80
61392;DHT22;47261;52.892;5.738;2023-04-15T05:03:24;6.00;97.80
61392;DHT22;47261;52.892;5.738;2023-04-15T05:05:50;6.00;97.80
61392;DHT22;47261;52.892;5.738;2023-04-15T05:08:15;6.00;97.80
61392;DHT22;47261;52.892;5.738;2023-04-15T05:10:41;6.00;97.80
61392;DHT22;47261;52.892;5.738;2023-04-15T05:13:07;6.00;97.80
61392;DHT22;47261;52.892;5.738;2023-04-15T05:15:32;6.00;97.80
61392;DHT22;47261;52.892;5.738;2023-04-15T05:17:59;5.90;97.80
61392;DHT22;47261;52.892;5.738;2023-04-15T05:20:25;5.90;97.80
61392;DHT22;47261;52.892;5.738;2023-04-15T05:22:50;5.90;97.80
61392;DHT22;47261;52.892;5.738;2023-04-15T05:25:17;5.90;97.90
61392;DHT22;47261;52.892;5.738;2023-04-15T05:27:42;5.90;97.90
61392;DHT22;47261;52.892;5.738;2023-04-15T05:30:08;5.90;97.90
61392;DHT22;47261;52.892;5.738;2023-04-15T05:32:34;6.00;98.00
61392;DHT22;47261;52.892;5.738;2023-04-15T05:35:00;6.00;98.00
61392;DHT22;47261;52.892;5.738;2023-04-15T05:37:25;6.00;98.00
61392;DHT22;47261;52.892;5.738;2023-04-15T05:39:51;6.10;98.00
61392;DHT22;47261;52.892;5.738;2023-04-15T05:42:17;6.10;97.90
61392;DHT22;47261;52.892;5.738;2023-04-15T05:44:42;6.30;97.70
61392;DHT22;47261;52.892;5.738;2023-04-15T05:47:08;6.50;97.50
61392;DHT22;47261;52.892;5.738;2023-04-15T05:49:35;6.60;97.40
61392;DHT22;47261;52.892;5.738;2023-04-15T05:52:01;6.80;97.20
61392;DHT22;47261;52.892;5.738;2023-04-15T05:54:27;7.00;97.20
61392;DHT22;47261;52.892;5.738;2023-04-15T05:56:53;7.10;97.10
61392;DHT22;47261;52.892;5.738;2023-04-15T05:59:18;7.30;97.10
61392;DHT22;47261;52.892;5.738;2023-04-15T06:01:44;7.40;97.00
61392;DHT22;47261;52.892;5.738;2023-04-15T06:04:10;7.60;97.00
61392;DHT22;47261;52.892;5.738;2023-04-15T06:06:36;7.70;97.00
61392;DHT22;47261;52.892;5.738;2023-04-15T06:09:03;7.90;97.00
61392;DHT22;47261;52.892;5.738;2023-04-15T06:11:28;8.00;97.00
61392;DHT22;47261;52.892;5.738;2023-04-15T06:13:54;8.10;97.10
61392;DHT22;47261;52.892;5.738;2023-04-15T06:16:20;8.20;97.20
61392;DHT22;47261;52.892;5.738;2023-04-15T06:18:47;8.40;97.30
61392;DHT22;47261;52.892;5.738;2023-04-15T06:21:13;8.50;97.50
61392;DHT22;47261;52.892;5.738;2023-04-15T06:23:38;8.60;97.60
61392;DHT22;47261;52.892;5.738;2023-04-15T06:26:05;8.80;97.60
61392;DHT22;47261;52.892;5.738;2023-04-15T06:28:31;8.90;97.60
61392;DHT22;47261;52.892;5.738;2023-04-15T06:30:57;9.10;97.60
61392;DHT22;47261;52.892;5.738;2023-04-15T06:33:22;9.30;97.60
61392;DHT22;47261;52.892;5.738;2023-04-15T06:35:48;9.40;97.50
61392;DHT22;47261;52.892;5.738;2023-04-15T06:38:14;9.60;97.40
61392;DHT22;47261;52.892;5.738;2023-04-15T06:40:40;9.70;97.30
61392;DHT22;47261;52.892;5.738;2023-04-15T06:43:06;9.80;97.20
61392;DHT22;47261;52.892;5.738;2023-04-15T06:45:32;9.90;97.10
61392;DHT22;47261;52.892;5.738;2023-04-15T06:47:58;9.90;97.00
61392;DHT22;47261;52.892;5.738;2023-04-15T06:50:23;10.00;96.90
61392;DHT22;47261;52.892;5.738;2023-04-15T06:52:49;10.00;96.90
61392;DHT22;47261;52.892;5.738;2023-04-15T06:55:15;10.00;96.80
61392;DHT22;47261;52.892;5.738;2023-04-15T06:57:40;10.00;96.80
61392;DHT22;47261;52.892;5.738;2023-04-15T07:00:07;10.00;96.80
61392;DHT22;47261;52.892;5.738;2023-04-15T07:02:33;9.90;96.80
61392;DHT22;47261;52.892;5.738;2023-04-15T07:04:58;9.90;96.80
61392;DHT22;47261;52.892;5.738;2023-04-15T07:07:24;9.90;96.80
61392;DHT22;47261;52.892;5.738;2023-04-15T07:09:50;9.90;96.90
61392;DHT22;47261;52.892;5.738;2023-04-15T07:12:18;9.80;96.90
61392;DHT22;47261;52.892;5.738;2023-04-15T07:14:43;9.80;97.00
61392;DHT22;47261;52.892;5.738;2023-04-15T07:17:09;9.80;97.00
61392;DHT22;47261;52.892;5.738;2023-04-15T07:19:35;9.90;97.20
61392;DHT22;47261;52.892;5.738;2023-04-15T07:22:01;9.90;97.20
61392;DHT22;47261;52.892;5.738;2023-04-15T07:24:27;10.00;97.30
61392;DHT22;47261;52.892;5.738;2023-04-15T07:26:55;10.10;97.40
61392;DHT22;47261;52.892;5.738;2023-04-15T07:29:24;10.20;97.50
61392;DHT22;47261;52.892;5.738;2023-04-15T07:31:50;10.30;97.50
61392;DHT22;47261;52.892;5.738;2023-04-15T07:34:16;10.40;97.60
61392;DHT22;47261;52.892;5.738;2023-04-15T07:36:42;10.50;97.50
61392;DHT22;47261;52.892;5.738;2023-04-15T07:39:07;10.50;97.50
61392;DHT22;47261;52.892;5.738;2023-04-15T07:41:33;10.70;97.60
61392;DHT22;47261;52.892;5.738;2023-04-15T07:43:59;10.80;97.70
61392;DHT22;47261;52.892;5.738;2023-04-15T07:46:25;10.90;97.70
61392;DHT22;47261;52.892;5.738;2023-04-15T07:48:52;11.00;97.60
61392;DHT22;47261;52.892;5.738;2023-04-15T07:51:19;11.20;97.70
61392;DHT22;47261;52.892;5.738;2023-04-15T07:53:46;11.30;97.70
61392;DHT22;47261;52.892;5.738;2023-04-15T07:56:12;11.40;97.70
61392;DHT22;47261;52.892;5.738;2023-04-15T07:58:38;11.50;97.30
61392;DHT22;47261;52.892;5.738;2023-04-15T08:01:05;11.60;96.70
61392;DHT22;47261;52.892;5.738;2023-04-15T08:03:31;11.70;96.20
61392;DHT22;47261;52.892;5.738;2023-04-15T08:05:57;11.70;95.80
61392;DHT22;47261;52.892;5.738;2023-04-15T08:08:23;11.80;95.60
61392;DHT22;47261;52.892;5.738;2023-04-15T08:10:49;11.80;95.30
61392;DHT22;47261;52.892;5.738;2023-04-15T08:13:15;11.90;95.00
61392;DHT22;47261;52.892;5.738;2023-04-15T08:15:41;11.90;94.80
61392;DHT22;47261;52.892;5.738;2023-04-15T08:18:07;12.00;94.50
61392;DHT22;47261;52.892;5.738;2023-04-15T08:20:33;12.00;94.40
61392;DHT22;47261;52.892;5.738;2023-04-15T08:22:58;12.10;94.40
61392;DHT22;47261;52.892;5.738;2023-04-15T08:25:24;12.20;94.50
61392;DHT22;47261;52.892;5.738;2023-04-15T08:27:50;12.20;94.40
61392;DHT22;47261;52.892;5.738;2023-04-15T08:30:15;12.30;94.50
61392;DHT22;47261;52.892;5.738;2023-04-15T08:32:42;12.40;94.30
61392;DHT22;47261;52.892;5.738;2023-04-15T08:35:10;12.40;93.80
61392;DHT22;47261;52.892;5.738;2023-04-15T08:37:36;12.50;93.50
61392;DHT22;47261;52.892;5.738;2023-04-15T08:40:02;12.50;93.50
61392;DHT22;47261;52.892;5.738;2023-04-15T08:42:31;12.60;93.10
61392;DHT22;47261;52.892;5.738;2023-04-15T08:44:59;12.60;92.80
61392;DHT22;47261;52.892;5.738;2023-04-15T08:47:29;12.70;92.60
61392;DHT22;47261;52.892;5.738;2023-04-15T08:49:58;12.70;92.40
61392;DHT22;47261;52.892;5.738;2023-04-15T08:52:30;12.70;92.60
61392;DHT22;47261;52.892;5.738;2023-04-15T08:54:57;12.70;92.30
61392;DHT22;47261;52.892;5.738;2023-04-15T08:57:27;12.70;92.10
61392;DHT22;47261;52.892;5.738;2023-04-15T08:59:56;12.70;92.10
61392;DHT22;47261;52.892;5.738;2023-04-15T09:02:23;12.70;91.90
61392;DHT22;47261;52.892;5.738;2023-04-15T09:04:49;12.70;91.30
61392;DHT22;47261;52.892;5.738;2023-04-15T09:07:15;12.60;90.90
61392;DHT22;47261;52.892;5.738;2023-04-15T09:09:41;12.60;91.50
61392;DHT22;47261;52.892;5.738;2023-04-15T09:12:07;12.60;91.70
61392;DHT22;47261;52.892;5.738;2023-04-15T09:14:33;12.60;91.10
61392;DHT22;47261;52.892;5.738;2023-04-15T09:17:01;12.70;91.10
61392;DHT22;47261;52.892;5.738;2023-04-15T09:19:27;12.70;91.50
61392;DHT22;47261;52.892;5.738;2023-04-15T09:21:55;12.80;91.40
61392;DHT22;47261;52.892;5.738;2023-04-15T09:24:21;12.80;91.30
61392;DHT22;47261;52.892;5.738;2023-04-15T09:26:47;12.70;91.00
61392;DHT22;47261;52.892;5.738;2023-04-15T09:29:16;12.80;91.50
61392;DHT22;47261;52.892;5.738;2023-04-15T09:31:43;12.80;92.10
61392;DHT22;47261;52.892;5.738;2023-04-15T09:34:08;13.00;92.90
61392;DHT22;47261;52.892;5.738;2023-04-15T09:39:12;13.30;91.60
61392;DHT22;47261;52.892;5.738;2023-04-15T09:41:38;13.30;91.20
61392;DHT22;47261;52.892;5.738;2023-04-15T09:44:04;13.20;90.10
61392;DHT22;47261;52.892;5.738;2023-04-15T09:46:42;13.00;90.50
61392;DHT22;47261;52.892;5.738;2023-04-15T09:49:09;13.00;90.60
61392;DHT22;47261;52.892;5.738;2023-04-15T09:51:36;12.90;90.80
61392;DHT22;47261;52.892;5.738;2023-04-15T09:54:01;12.90;90.50
61392;DHT22;47261;52.892;5.738;2023-04-15T09:56:34;12.80;90.50
61392;DHT22;47261;52.892;5.738;2023-04-15T09:59:06;12.70;90.80
61392;DHT22;47261;52.892;5.738;2023-04-15T10:01:33;12.70;91.00
61392;DHT22;47261;52.892;5.738;2023-04-15T10:04:02;12.70;91.40
61392;DHT22;47261;52.892;5.738;2023-04-15T10:06:28;12.70;91.30
61392;DHT22;47261;52.892;5.738;2023-04-15T10:08:55;12.80;91.20
61392;DHT22;47261;52.892;5.738;2023-04-15T10:11:21;12.80;91.00
61392;DHT22;47261;52.892;5.738;2023-04-15T10:13:49;12.80;90.80
61392;DHT22;47261;52.892;5.738;2023-04-15T10:16:18;12.80;91.20
61392;DHT22;47261;52.892;5.738;2023-04-15T10:18:46;12.90;91.30
61392;DHT22;47261;52.892;5.738;2023-04-15T10:21:13;13.00;91.50
61392;DHT22;47261;52.892;5.738;2023-04-15T10:23:44;13.00;90.60
61392;DHT22;47261;52.892;5.738;2023-04-15T10:26:10;13.00;90.70
61392;DHT22;47261;52.892;5.738;2023-04-15T10:28:37;13.00;90.80
61392;DHT22;47261;52.892;5.738;2023-04-15T10:31:04;13.20;90.90
61392;DHT22;47261;52.892;5.738;2023-04-15T10:33:30;13.40;91.00
61392;DHT22;47261;52.892;5.738;2023-04-15T10:35:57;13.70;90.80
61392;DHT22;47261;52.892;5.738;2023-04-15T10:38:44;13.90;90.60
61392;DHT22;47261;52.892;5.738;2023-04-15T10:41:15;13.90;88.30
61392;DHT22;47261;52.892;5.738;2023-04-15T10:43:52;13.70;86.60
61392;DHT22;47261;52.892;5.738;2023-04-15T10:46:21;13.60;88.20
61392;DHT22;47261;52.892;5.738;2023-04-15T10:48:53;13.80;89.10
61392;DHT22;47261;52.892;5.738;2023-04-15T10:51:29;14.10;89.60
61392;DHT22;47261;52.892;5.738;2023-04-15T10:53:57;14.30;88.50
61392;DHT22;47261;52.892;5.738;2023-04-15T10:56:23;14.40;86.10
61392;DHT22;47261;52.892;5.738;2023-04-15T10:58:49;14.40;87.10
61392;DHT22;47261;52.892;5.738;2023-04-15T11:01:15;14.50;86.00
61392;DHT22;47261;52.892;5.738;2023-04-15T11:03:42;14.60;85.80
61392;DHT22;47261;52.892;5.738;2023-04-15T11:06:08;14.60;84.10
61392;DHT22;47261;52.892;5.738;2023-04-15T11:08:58;14.40;82.20
61392;DHT22;47261;52.892;5.738;2023-04-15T11:12:05;14.20;82.90
61392;DHT22;47261;52.892;5.738;2023-04-15T11:14:32;14.10;85.70
61392;DHT22;47261;52.892;5.738;2023-04-15T11:17:00;14.00;84.60
61392;DHT22;47261;52.892;5.738;2023-04-15T11:19:26;13.90;84.80
61392;DHT22;47261;52.892;5.738;2023-04-15T11:21:51;13.90;84.90
61392;DHT22;47261;52.892;5.738;2023-04-15T11:24:24;13.90;84.70
61392;DHT22;47261;52.892;5.738;2023-04-15T11:26:58;13.80;85.10
61392;DHT22;47261;52.892;5.738;2023-04-15T11:29:32;13.70;84.40
61392;DHT22;47261;52.892;5.738;2023-04-15T11:32:04;13.60;85.50
61392;DHT22;47261;52.892;5.738;2023-04-15T11:34:31;13.50;86.00
61392;DHT22;47261;52.892;5.738;2023-04-15T11:36:57;13.40;86.70
61392;DHT22;47261;52.892;5.738;2023-04-15T11:39:22;13.30;88.00
61392;DHT22;47261;52.892;5.738;2023-04-15T11:41:48;13.10;87.50
61392;DHT22;47261;52.892;5.738;2023-04-15T11:44:17;12.90;89.10
61392;DHT22;47261;52.892;5.738;2023-04-15T11:46:43;12.80;90.10
61392;DHT22;47261;52.892;5.738;2023-04-15T11:49:08;12.70;90.60
61392;DHT22;47261;52.892;5.738;2023-04-15T11:51:34;12.60;90.80
61392;DHT22;47261;52.892;5.738;2023-04-15T11:54:00;12.70;90.50
61392;DHT22;47261;52.892;5.738;2023-04-15T11:56:26;12.70;90.20
61392;DHT22;47261;52.892;5.738;2023-04-15T11:58:56;12.80;90.60
61392;DHT22;47261;52.892;5.738;2023-04-15T12:01:36;12.70;90.40
61392;DHT22;47261;52.892;5.738;2023-04-15T12:04:10;12.60;90.50
61392;DHT22;47261;52.892;5.738;2023-04-15T12:06:36;12.60;90.70
61392;DHT22;47261;52.892;5.738;2023-04-15T12:14:11;12.40;90.80
61392;DHT22;47261;52.892;5.738;2023-04-15T12:17:12;12.40;91.90
61392;DHT22;47261;52.892;5.738;2023-04-15T12:19:40;12.40;92.10
61392;DHT22;47261;52.892;5.738;2023-04-15T12:22:12;12.30;91.60
61392;DHT22;47261;52.892;5.738;2023-04-15T12:24:38;12.20;91.60
61392;DHT22;47261;52.892;5.738;2023-04-15T12:27:09;12.10;92.10
61392;DHT22;47261;52.892;5.738;2023-04-15T12:29:37;12.10;92.80
61392;DHT22;47261;52.892;5.738;2023-04-15T12:32:21;12.10;93.20
61392;DHT22;47261;52.892;5.738;2023-04-15T12:34:50;12.20;92.70
61392;DHT22;47261;52.892;5.738;2023-04-15T12:37:16;12.40;92.30
61392;DHT22;47261;52.892;5.738;2023-04-15T12:39:43;12.50;91.80
61392;DHT22;47261;52.892;5.738;2023-04-15T12:42:09;12.50;91.50
61392;DHT22;47261;52.892;5.738;2023-04-15T12:44:36;12.60;91.10
61392;DHT22;47261;52.892;5.738;2023-04-15T12:47:02;12.60;91.30
61392;DHT22;47261;52.892;5.738;2023-04-15T12:49:29;12.60;91.50
61392;DHT22;47261;52.892;5.738;2023-04-15T12:51:56;12.50;91.40
61392;DHT22;47261;52.892;5.738;2023-04-15T12:54:22;12.40;91.80
61392;DHT22;47261;52.892;5.738;2023-04-15T12:56:48;12.30;92.00
61392;DHT22;47261;52.892;5.738;2023-04-15T12:59:15;12.10;92.50
61392;DHT22;47261;52.892;5.738;2023-04-15T13:01:43;12.00;92.60
61392;DHT22;47261;52.892;5.738;2023-04-15T13:04:08;11.90;93.30
61392;DHT22;47261;52.892;5.738;2023-04-15T13:06:34;11.90;94.10
61392;DHT22;47261;52.892;5.738;2023-04-15T13:09:01;11.80;94.10
61392;DHT22;47261;52.892;5.738;2023-04-15T13:11:28;11.70;93.80
61392;DHT22;47261;52.892;5.738;2023-04-15T13:13:56;11.70;94.10
61392;DHT22;47261;52.892;5.738;2023-04-15T13:16:22;11.60;94.10
61392;DHT22;47261;52.892;5.738;2023-04-15T13:18:49;11.60;94.10
61392;DHT22;47261;52.892;5.738;2023-04-15T13:21:15;11.60;94.20
61392;DHT22;47261;52.892;5.738;2023-04-15T13:23:41;11.60;94.00
61392;DHT22;47261;52.892;5.738;2023-04-15T13:26:07;11.60;93.80
61392;DHT22;47261;52.892;5.738;2023-04-15T13:28:33;11.60;93.60
61392;DHT22;47261;52.892;5.738;2023-04-15T13:30:58;11.60;94.00
61392;DHT22;47261;52.892;5.738;2023-04-15T13:33:25;11.50;93.80
61392;DHT22;47261;52.892;5.738;2023-04-15T13:35:51;11.40;94.20
61392;DHT22;47261;52.892;5.738;2023-04-15T13:38:17;11.40;94.20
61392;DHT22;47261;52.892;5.738;2023-04-15T13:40:42;11.30;94.70
61392;DHT22;47261;52.892;5.738;2023-04-15T13:43:08;11.20;95.00
61392;DHT22;47261;52.892;5.738;2023-04-15T13:45:34;11.10;95.20
61392;DHT22;47261;52.892;5.738;2023-04-15T13:48:00;11.00;95.20
61392;DHT22;47261;52.892;5.738;2023-04-15T13:50:27;10.90;95.70
61392;DHT22;47261;52.892;5.738;2023-04-15T13:52:52;10.80;96.30
61392;DHT22;47261;52.892;5.738;2023-04-15T13:55:18;10.80;96.40
61392;DHT22;47261;52.892;5.738;2023-04-15T13:57:44;10.70;96.30
61392;DHT22;47261;52.892;5.738;2023-04-15T14:00:10;10.70;96.50
61392;DHT22;47261;52.892;5.738;2023-04-15T14:02:36;10.70;96.80
61392;DHT22;47261;52.892;5.738;2023-04-15T14:05:02;10.60;97.00
61392;DHT22;47261;52.892;5.738;2023-04-15T14:07:28;10.60;97.30
61392;DHT22;47261;52.892;5.738;2023-04-15T14:09:55;10.50;97.20
61392;DHT22;47261;52.892;5.738;2023-04-15T14:12:21;10.50;97.30
61392;DHT22;47261;52.892;5.738;2023-04-15T14:14:47;10.50;97.40
61392;DHT22;47261;52.892;5.738;2023-04-15T14:17:12;10.50;97.40
61392;DHT22;47261;52.892;5.738;2023-04-15T14:19:38;10.50;97.40
61392;DHT22;47261;52.892;5.738;2023-04-15T14:22:04;10.40;97.30
61392;DHT22;47261;52.892;5.738;2023-04-15T14:24:30;10.40;97.20
61392;DHT22;47261;52.892;5.738;2023-04-15T14:26:55;10.40;97.40
61392;DHT22;47261;52.892;5.738;2023-04-15T14:29:21;10.40;97.50
61392;DHT22;47261;52.892;5.738;2023-04-15T14:31:47;10.40;97.30
61392;DHT22;47261;52.892;5.738;2023-04-15T14:34:15;10.50;97.30
61392;DHT22;47261;52.892;5.738;2023-04-15T14:36:41;10.50;97.20
61392;DHT22;47261;52.892;5.738;2023-04-15T14:39:07;10.50;97.30
61392;DHT22;47261;52.892;5.738;2023-04-15T14:41:33;10.50;97.10
61392;DHT22;47261;52.892;5.738;2023-04-15T14:43:59;10.50;97.20
61392;DHT22;47261;52.892;5.738;2023-04-15T14:46:25;10.50;96.90
61392;DHT22;47261;52.892;5.738;2023-04-15T14:48:51;10.50;97.20
61392;DHT22;47261;52.892;5.738;2023-04-15T14:51:17;10.50;97.70
61392;DHT22;47261;52.892;5.738;2023-04-15T14:53:43;10.50;97.70
61392;DHT22;47261;52.892;5.738;2023-04-15T14:56:09;10.40;97.50
61392;DHT22;47261;52.892;5.738;2023-04-15T14:58:35;10.50;97.60
61392;DHT22;47261;52.892;5.738;2023-04-15T15:01:01;10.50;97.60
61392;DHT22;47261;52.892;5.738;2023-04-15T15:03:27;10.60;97.60
61392;DHT22;47261;52.892;5.738;2023-04-15T15:05:53;10.50;97.60
61392;DHT22;47261;52.892;5.738;2023-04-15T15:08:19;10.50;97.80
61392;DHT22;47261;52.892;5.738;2023-04-15T15:10:45;10.50;97.30
61392;DHT22;47261;52.892;5.738;2023-04-15T15:13:10;10.40;97.30
61392;DHT22;47261;52.892;5.738;2023-04-15T15:15:37;10.40;97.30
61392;DHT22;47261;52.892;5.738;2023-04-15T15:18:04;10.40;97.30
61392;DHT22;47261;52.892;5.738;2023-04-15T15:20:30;10.40;97.90
61392;DHT22;47261;52.892;5.738;2023-04-15T15:22:57;10.30;97.90
61392;DHT22;47261;52.892;5.738;2023-04-15T15:25:23;10.30;97.70
61392;DHT22;47261;52.892;5.738;2023-04-15T15:27:49;10.30;97.70
61392;DHT22;47261;52.892;5.738;2023-04-15T15:30:14;10.30;97.90
61392;DHT22;47261;52.892;5.738;2023-04-15T15:32:41;10.30;97.90
61392;DHT22;47261;52.892;5.738;2023-04-15T15:35:07;10.30;97.90
61392;DHT22;47261;52.892;5.738;2023-04-15T15:37:37;10.30;97.90
61392;DHT22;47261;52.892;5.738;2023-04-15T15:40:06;10.30;98.00
61392;DHT22;47261;52.892;5.738;2023-04-15T15:42:32;10.30;98.10